createdAt,value
2022-08-17T00:00:03.776Z,21.55
2022-08-17T00:02:59.748Z,21.46
2022-08-17T00:05:33.373Z,21.32
2022-08-17T00:08:00.851Z,21.30
2022-08-17T00:10:28.420Z,21.23
2022-08-17T00:12:58.940Z,21.11
2022-08-17T00:15:26.459Z,21.05
2022-08-17T00:17:53.918Z,21.19
2022-08-17T00:20:21.625Z,21.00
2022-08-17T00:23:09.543Z,21.19
2022-08-17T00:25:37.255Z,20.96
2022-08-17T00:28:04.774Z,20.90
2022-08-17T00:30:51.190Z,21.09
2022-08-17T00:33:25.468Z,20.97
2022-08-17T00:35:54.300Z,20.81
2022-08-17T00:38:23.150Z,20.59
2022-08-17T00:40:59.256Z,20.79
2022-08-17T00:43:32.004Z,20.71
2022-08-17T00:46:02.755Z,20.51
2022-08-17T00:48:32.278Z,20.56
2022-08-17T00:51:18.343Z,20.43
2022-08-17T00:53:50.661Z,20.46
2022-08-17T00:56:23.011Z,20.46
2022-08-17T00:58:52.084Z,20.42
2022-08-17T01:01:21.727Z,20.56
2022-08-17T01:03:52.207Z,20.50
2022-08-17T01:06:21.757Z,20.54
2022-08-17T01:08:57.865Z,20.64
2022-08-17T01:11:26.868Z,20.62
2022-08-17T01:13:54.323Z,20.66
2022-08-17T01:16:30.025Z,20.78
2022-08-17T01:19:03.395Z,20.55
2022-08-17T01:21:39.905Z,20.59
2022-08-17T01:24:07.828Z,20.57
2022-08-17T01:26:36.186Z,20.96
2022-08-17T01:29:05.464Z,21.26
2022-08-17T01:31:39.344Z,22.00
2022-08-17T01:34:09.816Z,22.67
2022-08-17T01:36:38.353Z,21.80
2022-08-17T01:39:10.292Z,21.19
2022-08-17T01:41:38.249Z,21.07
2022-08-17T01:44:06.761Z,21.76
2022-08-17T01:46:36.580Z,21.66
2022-08-17T01:49:10.342Z,21.94
2022-08-17T01:51:39.011Z,22.54
2022-08-17T01:54:10.833Z,23.09
2022-08-17T01:56:41.510Z,23.15
2022-08-17T01:59:09.702Z,22.82
2022-08-17T02:01:38.005Z,22.85
2022-08-17T02:04:07.065Z,21.96
2022-08-17T02:06:52.360Z,21.41
2022-08-17T02:09:25.986Z,21.17
2022-08-17T02:11:56.384Z,21.17
2022-08-17T02:14:24.722Z,21.47
2022-08-17T02:16:53.157Z,22.72
2022-08-17T02:19:20.809Z,22.73
2022-08-17T02:21:55.356Z,22.21
2022-08-17T02:25:01.293Z,22.70
2022-08-17T02:27:14.130Z,22.89
2022-08-17T02:29:41.540Z,22.99
2022-08-17T02:32:25.344Z,22.93
2022-08-17T02:34:57.217Z,22.19
2022-08-17T02:37:25.902Z,21.04
2022-08-17T02:39:53.601Z,20.62
2022-08-17T02:42:27.837Z,20.14
2022-08-17T02:44:55.244Z,20.17
2022-08-17T02:47:23.015Z,19.94
2022-08-17T02:49:54.486Z,19.79
2022-08-17T02:53:01.583Z,19.88
2022-08-17T02:55:16.328Z,19.96
2022-08-17T02:57:44.736Z,20.17
2022-08-17T03:00:16.248Z,20.20
2022-08-17T03:02:44.774Z,19.90
2022-08-17T03:05:14.211Z,19.64
2022-08-17T03:07:41.984Z,19.75
2022-08-17T03:10:10.129Z,19.74
2022-08-17T03:12:39.625Z,20.05
2022-08-17T03:15:14.160Z,20.15
2022-08-17T03:17:41.937Z,20.01
2022-08-17T03:20:10.088Z,19.80
2022-08-17T03:22:40.304Z,20.06
2022-08-17T03:25:10.884Z,19.80
2022-08-17T03:27:39.492Z,19.78
2022-08-17T03:30:10.819Z,19.34
2022-08-17T03:32:39.880Z,19.46
2022-08-17T03:35:07.751Z,19.48
2022-08-17T03:37:36.320Z,19.36
2022-08-17T03:40:05.341Z,20.05
2022-08-17T03:42:33.026Z,20.21
2022-08-17T03:45:01.847Z,19.65
2022-08-17T03:47:48.185Z,19.75
2022-08-17T03:50:35.927Z,19.87
2022-08-17T03:53:25.950Z,19.90
2022-08-17T03:56:12.806Z,20.03
2022-08-17T03:58:40.181Z,19.95
2022-08-17T04:01:08.242Z,19.82
2022-08-17T04:03:36.145Z,19.79
2022-08-17T04:06:03.611Z,19.76
2022-08-17T04:08:31.073Z,19.86
2022-08-17T04:10:58.904Z,19.92
2022-08-17T04:13:26.508Z,19.84
2022-08-17T04:15:54.274Z,19.88
2022-08-17T04:18:21.963Z,19.93
2022-08-17T04:20:49.376Z,19.84
2022-08-17T04:23:18.490Z,20.17
2022-08-17T04:25:49.139Z,20.26
2022-08-17T04:28:18.161Z,20.08
2022-08-17T04:30:47.454Z,19.94
2022-08-17T04:33:29.577Z,20.07
2022-08-17T04:36:00.586Z,19.91
2022-08-17T04:38:33.179Z,20.27
2022-08-17T04:41:20.346Z,20.28
2022-08-17T04:43:48.939Z,20.34
2022-08-17T04:46:18.502Z,20.41
2022-08-17T04:48:51.689Z,21.27
2022-08-17T04:51:29.016Z,21.83
2022-08-17T04:54:00.469Z,22.35
2022-08-17T04:56:29.278Z,21.22
2022-08-17T04:59:01.546Z,22.23
2022-08-17T05:01:32.311Z,22.44
2022-08-17T05:04:21.127Z,22.62
2022-08-17T05:06:50.134Z,22.37
2022-08-17T05:09:18.607Z,22.11
2022-08-17T05:11:46.515Z,21.79
2022-08-17T05:14:14.731Z,21.91
2022-08-17T05:16:42.191Z,22.01
2022-08-17T05:19:09.606Z,22.77
2022-08-17T05:21:37.341Z,22.76
2022-08-17T05:24:06.069Z,23.19
2022-08-17T05:26:44.388Z,23.19
2022-08-17T05:29:12.642Z,23.32
2022-08-17T05:31:40.326Z,23.67
2022-08-17T05:34:08.179Z,23.76
2022-08-17T05:36:41.933Z,23.89
2022-08-17T05:39:16.657Z,24.10
2022-08-17T05:41:46.725Z,24.49
2022-08-17T05:44:15.394Z,24.56
2022-08-17T05:46:48.169Z,24.48
2022-08-17T05:49:19.420Z,25.13
2022-08-17T05:52:05.494Z,25.18
2022-08-17T05:55:05.167Z,25.12
2022-08-17T05:57:52.966Z,24.52
2022-08-17T06:00:30.699Z,24.09
2022-08-17T06:03:32.780Z,24.48
2022-08-17T06:06:14.639Z,24.16
2022-08-17T06:09:21.229Z,24.82
2022-08-17T06:12:19.934Z,24.95
2022-08-17T06:15:07.395Z,24.69
2022-08-17T06:17:34.847Z,24.90
2022-08-17T06:20:07.133Z,24.51
2022-08-17T06:22:38.367Z,24.47
2022-08-17T06:25:14.237Z,24.59
2022-08-17T06:27:47.911Z,25.61
2022-08-17T06:30:27.258Z,25.51
2022-08-17T06:32:59.593Z,25.61
2022-08-17T06:36:09.244Z,26.74
2022-08-17T06:38:53.606Z,27.07
2022-08-17T06:44:43.370Z,27.38
2022-08-17T06:47:29.271Z,27.52
2022-08-17T06:50:15.629Z,27.47
2022-08-17T06:52:53.195Z,27.76
2022-08-17T06:55:26.424Z,27.19
2022-08-17T06:57:58.351Z,26.29
2022-08-17T07:00:36.739Z,27.29
2022-08-17T07:03:33.406Z,27.67
2022-08-17T07:06:19.669Z,27.80
2022-08-17T07:09:04.539Z,28.08
2022-08-17T07:11:34.219Z,28.38
2022-08-17T07:14:17.306Z,29.18
2022-08-17T07:16:48.504Z,29.29
2022-08-17T07:19:18.723Z,30.28
2022-08-17T07:22:04.994Z,31.43
2022-08-17T07:24:47.691Z,32.17
2022-08-17T07:27:21.364Z,34.17
2022-08-17T07:30:00.565Z,32.40
2022-08-17T07:32:35.833Z,32.23
2022-08-17T07:35:15.104Z,33.34
2022-08-17T07:37:53.405Z,34.04
2022-08-17T07:40:27.164Z,32.96
2022-08-17T07:43:07.854Z,34.56
2022-08-17T07:46:13.524Z,34.18
2022-08-17T07:48:46.959Z,34.55
2022-08-17T07:51:18.660Z,36.08
2022-08-17T07:53:46.239Z,38.12
2022-08-17T07:56:37.903Z,39.28
2022-08-17T07:59:18.190Z,39.19
2022-08-17T08:01:57.592Z,36.96
2022-08-17T08:04:58.941Z,39.49
2022-08-17T08:07:26.896Z,38.76
2022-08-17T08:10:11.642Z,37.12
2022-08-17T08:12:40.482Z,37.66
2022-08-17T08:15:21.805Z,36.00
2022-08-17T08:17:55.925Z,34.46
2022-08-17T08:20:53.100Z,36.27
2022-08-17T08:23:33.410Z,33.36
2022-08-17T08:26:28.488Z,34.37
2022-08-17T08:29:12.580Z,35.69
2022-08-17T08:31:50.782Z,35.30
2022-08-17T08:35:01.502Z,34.77
2022-08-17T08:37:55.717Z,35.23
2022-08-17T08:40:38.751Z,35.08
2022-08-17T08:43:22.361Z,34.99
2022-08-17T08:46:12.744Z,34.64
2022-08-17T08:49:12.131Z,33.39
2022-08-17T08:51:51.673Z,34.37
2022-08-17T08:54:28.400Z,33.99
2022-08-17T08:57:24.289Z,33.73
2022-08-17T09:00:02.301Z,34.67
2022-08-17T09:02:41.733Z,32.81
2022-08-17T09:05:17.175Z,32.21
2022-08-17T09:08:23.388Z,32.61
2022-08-17T09:11:13.744Z,33.81
2022-08-17T09:13:44.156Z,33.60
2022-08-17T09:16:20.249Z,33.14
2022-08-17T09:19:00.906Z,32.38
2022-08-17T09:21:48.991Z,32.48
2022-08-17T09:24:36.583Z,33.18
2022-08-17T09:27:09.332Z,33.75
2022-08-17T09:29:40.440Z,33.89
2022-08-17T09:32:32.779Z,32.39
2022-08-17T09:35:20.008Z,32.19
2022-08-17T09:37:57.072Z,33.43
2022-08-17T09:40:27.769Z,33.16
2022-08-17T09:43:12.749Z,33.14
2022-08-17T09:45:58.488Z,34.37
2022-08-17T09:48:55.247Z,33.36
2022-08-17T09:51:33.475Z,33.62
2022-08-17T09:54:34.883Z,34.62
2022-08-17T09:57:34.440Z,34.95
2022-08-17T10:00:11.930Z,35.08
2022-08-17T10:02:42.264Z,35.23
2022-08-17T10:05:37.836Z,34.26
2022-08-17T10:08:09.558Z,34.48
2022-08-17T10:10:43.555Z,35.56
2022-08-17T10:13:40.429Z,35.67
2022-08-17T10:16:23.474Z,34.43
2022-08-17T10:19:08.162Z,33.93
2022-08-17T10:22:01.571Z,35.27
2022-08-17T10:25:22.430Z,35.70
2022-08-17T10:27:55.648Z,35.61
2022-08-17T10:30:26.787Z,36.05
2022-08-17T10:32:59.296Z,34.51
2022-08-17T10:35:33.977Z,35.80
2022-08-17T10:38:04.796Z,36.13
2022-08-17T10:40:46.801Z,35.49
2022-08-17T10:43:57.891Z,35.98
2022-08-17T10:46:56.616Z,35.59
2022-08-17T10:49:29.305Z,36.37
2022-08-17T10:52:00.039Z,35.86
2022-08-17T10:54:38.406Z,35.15
2022-08-17T10:57:33.874Z,36.13
2022-08-17T11:00:13.342Z,36.07
2022-08-17T11:02:56.220Z,35.56
2022-08-17T11:05:53.939Z,36.36
2022-08-17T11:08:48.953Z,36.18
2022-08-17T11:11:50.956Z,35.05
2022-08-17T11:14:33.143Z,35.50
2022-08-17T11:17:11.349Z,35.66
2022-08-17T11:20:01.737Z,34.56
2022-08-17T11:22:42.586Z,35.04
2022-08-17T11:25:22.689Z,35.73
2022-08-17T11:27:53.769Z,35.04
2022-08-17T11:30:51.649Z,34.43
2022-08-17T11:33:36.903Z,35.44
2022-08-17T11:36:24.691Z,35.41
2022-08-17T11:38:58.024Z,34.59
2022-08-17T11:41:47.078Z,34.47
2022-08-17T11:44:41.838Z,35.36
2022-08-17T11:48:16.079Z,35.67
2022-08-17T11:51:21.952Z,35.61
2022-08-17T11:53:50.102Z,35.03
2022-08-17T11:56:34.302Z,35.42
2022-08-17T11:59:02.563Z,36.19
2022-08-17T12:01:32.860Z,35.66
2022-08-17T12:04:30.432Z,35.29
2022-08-17T12:07:08.396Z,34.81
2022-08-17T12:09:40.651Z,35.68
2022-08-17T12:12:18.248Z,35.95
2022-08-17T12:15:11.026Z,36.82
2022-08-17T12:17:52.057Z,35.83
2022-08-17T12:20:28.758Z,35.72
2022-08-17T12:23:11.427Z,36.04
2022-08-17T12:25:45.913Z,36.88
2022-08-17T12:28:27.720Z,37.15
2022-08-17T12:30:59.797Z,36.73
2022-08-17T12:33:28.923Z,36.97
2022-08-17T12:36:05.829Z,37.34
2022-08-17T12:38:36.221Z,36.46
2022-08-17T12:41:24.819Z,36.12
2022-08-17T12:44:03.713Z,35.89
2022-08-17T12:46:35.931Z,36.03
2022-08-17T12:49:36.948Z,36.33
2022-08-17T12:52:24.682Z,37.06
2022-08-17T12:55:02.359Z,36.74
2022-08-17T12:57:32.798Z,36.19
2022-08-17T13:00:10.206Z,36.25
2022-08-17T13:02:42.407Z,36.86
2022-08-17T13:05:22.310Z,36.65
2022-08-17T13:07:50.861Z,37.31
2022-08-17T13:10:24.816Z,36.26
2022-08-17T13:12:54.287Z,36.20
2022-08-17T13:15:23.649Z,35.62
2022-08-17T13:17:57.883Z,36.35
2022-08-17T13:20:25.816Z,36.95
2022-08-17T13:22:56.583Z,37.10
2022-08-17T13:25:25.363Z,36.87
2022-08-17T13:27:54.473Z,37.09
2022-08-17T13:30:33.340Z,37.60
2022-08-17T13:33:04.117Z,37.00
2022-08-17T13:35:50.290Z,36.13
2022-08-17T13:38:40.472Z,36.22
2022-08-17T13:41:08.893Z,36.30
2022-08-17T13:43:45.178Z,37.29
2022-08-17T13:46:19.694Z,36.93
2022-08-17T13:49:04.439Z,36.98
2022-08-17T13:51:50.823Z,35.98
2022-08-17T13:54:49.972Z,36.45
2022-08-17T13:57:22.712Z,36.42
2022-08-17T13:59:56.358Z,36.42
2022-08-17T14:02:27.926Z,36.89
2022-08-17T14:04:57.326Z,36.55
2022-08-17T14:07:30.223Z,36.65
2022-08-17T14:10:09.815Z,36.37
2022-08-17T14:12:38.885Z,36.58
2022-08-17T14:15:07.669Z,36.41
2022-08-17T14:17:38.898Z,36.08
2022-08-17T14:20:09.628Z,36.72
2022-08-17T14:22:39.675Z,37.00
2022-08-17T14:25:10.308Z,36.11
2022-08-17T14:27:52.005Z,35.31
2022-08-17T14:30:26.735Z,35.40
2022-08-17T14:32:58.124Z,35.43
2022-08-17T14:35:28.102Z,35.30
2022-08-17T14:37:56.214Z,35.78
2022-08-17T14:40:25.058Z,36.44
2022-08-17T14:42:55.316Z,36.45
2022-08-17T14:45:30.270Z,36.59
2022-08-17T14:48:07.720Z,36.66
2022-08-17T14:50:37.508Z,36.34
2022-08-17T14:53:06.537Z,36.48
2022-08-17T14:55:34.665Z,36.36
2022-08-17T14:58:02.085Z,35.74
2022-08-17T15:00:29.899Z,35.34
2022-08-17T15:02:58.836Z,35.40
2022-08-17T15:05:31.715Z,35.75
2022-08-17T15:08:01.095Z,35.67
2022-08-17T15:10:29.861Z,36.48
2022-08-17T15:12:58.031Z,36.79
2022-08-17T15:15:26.352Z,35.38
2022-08-17T15:17:54.851Z,36.18
2022-08-17T15:20:26.787Z,35.37
2022-08-17T15:22:56.072Z,35.92
2022-08-17T15:25:25.433Z,36.65
2022-08-17T15:27:53.763Z,36.29
2022-08-17T15:30:25.802Z,36.72
2022-08-17T15:32:55.232Z,36.48
2022-08-17T15:35:30.814Z,36.68
2022-08-17T15:38:10.676Z,36.19
2022-08-17T15:40:42.588Z,36.85
2022-08-17T15:43:16.173Z,36.58
2022-08-17T15:45:43.732Z,36.13
2022-08-17T15:48:11.578Z,36.41
2022-08-17T15:50:38.975Z,36.86
2022-08-17T15:53:06.714Z,35.76
2022-08-17T15:55:35.108Z,36.08
2022-08-17T15:58:02.561Z,36.96
2022-08-17T16:00:30.690Z,36.68
2022-08-17T16:03:46.742Z,36.78
2022-08-17T16:05:51.330Z,36.68
2022-08-17T16:08:21.273Z,36.58
2022-08-17T16:10:50.140Z,36.53
2022-08-17T16:13:19.038Z,36.35
2022-08-17T16:15:57.106Z,35.56
2022-08-17T16:18:31.131Z,35.13
2022-08-17T16:21:20.213Z,34.95
2022-08-17T16:23:49.270Z,35.75
2022-08-17T16:26:18.451Z,35.63
2022-08-17T16:28:46.650Z,35.89
2022-08-17T16:31:14.609Z,35.80
2022-08-17T16:33:42.509Z,36.41
2022-08-17T16:36:31.158Z,36.82
2022-08-17T16:38:59.457Z,36.20
2022-08-17T16:41:45.348Z,36.33
2022-08-17T16:44:15.583Z,36.39
2022-08-17T16:46:45.572Z,36.15
2022-08-17T16:49:34.462Z,36.37
2022-08-17T16:52:03.405Z,36.10
2022-08-17T16:54:31.329Z,35.69
2022-08-17T16:56:58.870Z,36.25
2022-08-17T16:59:38.867Z,35.96
2022-08-17T17:02:11.505Z,35.81
2022-08-17T17:05:02.996Z,35.82
2022-08-17T17:07:55.455Z,35.97
2022-08-17T17:10:26.245Z,35.90
2022-08-17T17:13:02.807Z,35.93
2022-08-17T17:15:47.578Z,35.42
2022-08-17T17:18:15.898Z,35.80
2022-08-17T17:20:49.912Z,35.79
2022-08-17T17:23:38.201Z,35.95
2022-08-17T17:26:20.258Z,35.76
2022-08-17T17:29:07.993Z,35.50
2022-08-17T17:31:57.205Z,35.31
2022-08-17T17:34:26.096Z,35.26
2022-08-17T17:36:56.861Z,35.34
2022-08-17T17:39:37.055Z,34.60
2022-08-17T17:42:10.095Z,34.20
2022-08-17T17:44:42.490Z,34.14
2022-08-17T17:47:12.780Z,34.37
2022-08-17T17:49:43.922Z,34.21
2022-08-17T17:52:19.647Z,33.57
2022-08-17T17:54:56.245Z,33.89
2022-08-17T17:57:55.837Z,33.64
2022-08-17T18:00:24.608Z,33.36
2022-08-17T18:03:04.300Z,32.83
2022-08-17T18:05:37.384Z,32.52
2022-08-17T18:08:34.698Z,32.24
2022-08-17T18:11:24.682Z,32.05
2022-08-17T18:14:01.929Z,32.08
2022-08-17T18:16:32.819Z,32.00
2022-08-17T18:19:01.121Z,31.54
2022-08-17T18:21:37.798Z,31.15
2022-08-17T18:24:08.069Z,30.77
2022-08-17T18:26:39.526Z,30.17
2022-08-17T18:29:21.765Z,29.78
2022-08-17T18:31:52.522Z,29.93
2022-08-17T18:37:29.706Z,30.37
2022-08-17T18:39:57.569Z,30.37
2022-08-17T18:42:27.239Z,30.95
2022-08-17T18:44:55.782Z,31.16
2022-08-17T18:47:28.922Z,31.33
2022-08-17T18:50:00.502Z,31.20
2022-08-17T18:52:31.282Z,31.41
2022-08-17T18:55:09.023Z,30.97
2022-08-17T18:57:43.635Z,30.72
2022-08-17T19:00:16.650Z,30.18
2022-08-17T19:02:56.387Z,30.08
2022-08-17T19:05:34.944Z,29.72
2022-08-17T19:08:33.780Z,28.68
2022-08-17T19:11:05.643Z,28.22
2022-08-17T19:13:55.358Z,28.46
2022-08-17T19:16:28.699Z,28.82
2022-08-17T19:19:05.253Z,28.69
2022-08-17T19:21:40.347Z,29.16
2022-08-17T19:24:19.614Z,29.66
2022-08-17T19:27:13.895Z,29.54
2022-08-17T19:29:47.247Z,28.83
2022-08-17T19:32:17.418Z,29.46
2022-08-17T19:34:45.370Z,29.53
2022-08-17T19:37:38.073Z,28.49
2022-08-17T19:40:52.376Z,27.67
2022-08-17T19:43:43.345Z,28.07
2022-08-17T19:46:35.812Z,28.49
2022-08-17T19:49:41.688Z,28.53
2022-08-17T19:52:31.602Z,27.60
2022-08-17T19:55:18.270Z,27.18
2022-08-17T19:58:07.891Z,26.95
2022-08-17T20:00:41.315Z,26.90
2022-08-17T20:03:16.732Z,27.04
2022-08-17T20:06:11.595Z,26.70
2022-08-17T20:08:41.237Z,26.82
2022-08-17T20:11:20.675Z,26.72
2022-08-17T20:13:59.552Z,26.28
2022-08-17T20:16:27.192Z,26.28
2022-08-17T20:19:27.334Z,26.54
2022-08-17T20:22:11.658Z,26.32
2022-08-17T20:24:52.665Z,26.06
2022-08-17T20:27:52.887Z,25.78
2022-08-17T20:30:24.213Z,25.74
2022-08-17T20:32:55.593Z,25.76
2022-08-17T20:35:32.849Z,25.65
2022-08-17T20:38:02.246Z,25.55
2022-08-17T20:40:36.826Z,25.45
2022-08-17T20:43:34.749Z,25.18
2022-08-17T20:46:24.223Z,25.26
2022-08-17T20:48:55.288Z,25.17
2022-08-17T20:51:38.617Z,25.11
2022-08-17T20:54:08.173Z,25.02
2022-08-17T20:56:44.904Z,25.15
2022-08-17T20:59:22.894Z,25.02
2022-08-17T21:02:17.733Z,24.95
2022-08-17T21:04:54.516Z,24.70
2022-08-17T21:07:43.558Z,24.83
2022-08-17T21:10:21.754Z,24.51
2022-08-17T21:13:04.626Z,24.55
2022-08-17T21:16:09.495Z,24.66
2022-08-17T21:19:02.487Z,24.45
2022-08-17T21:21:43.419Z,24.43
2022-08-17T21:24:26.628Z,24.41
2022-08-17T21:27:48.611Z,24.36
2022-08-17T21:30:38.627Z,24.31
2022-08-17T21:33:16.132Z,24.13
2022-08-17T21:35:53.918Z,24.09
2022-08-17T21:38:55.685Z,23.93
2022-08-17T21:41:35.500Z,23.99
2022-08-17T21:44:11.270Z,23.89
2022-08-17T21:46:46.469Z,23.78
2022-08-17T21:49:17.855Z,23.84
2022-08-17T21:51:50.008Z,23.90
2022-08-17T21:54:22.221Z,23.71
2022-08-17T21:56:50.257Z,23.65
2022-08-17T21:59:26.132Z,23.81
2022-08-17T22:02:02.553Z,23.50
2022-08-17T22:04:35.977Z,23.46
2022-08-17T22:07:06.048Z,23.74
2022-08-17T22:09:41.621Z,23.85
2022-08-17T22:12:19.646Z,23.60
2022-08-17T22:15:01.282Z,23.65
2022-08-17T22:17:28.995Z,23.57
2022-08-17T22:20:04.857Z,23.50
2022-08-17T22:22:55.952Z,23.50
2022-08-17T22:25:24.767Z,23.55
2022-08-17T22:27:58.215Z,23.44
2022-08-17T22:30:29.810Z,23.34
2022-08-17T22:33:01.105Z,23.44
2022-08-17T22:35:42.109Z,23.59
2022-08-17T22:38:20.064Z,23.53
2022-08-17T22:40:56.652Z,23.63
2022-08-17T22:43:29.219Z,23.74
2022-08-17T22:45:59.816Z,23.50
2022-08-17T22:48:30.942Z,23.51
2022-08-17T22:51:12.743Z,23.32
2022-08-17T22:54:16.656Z,23.12
2022-08-17T22:57:10.628Z,23.24
2022-08-17T22:59:41.905Z,23.09
2022-08-17T23:02:14.780Z,23.08
2022-08-17T23:04:49.140Z,23.07
2022-08-17T23:07:17.648Z,23.10
2022-08-17T23:09:45.593Z,22.84
2022-08-17T23:12:21.515Z,22.85
2022-08-17T23:14:51.449Z,22.86
2022-08-17T23:17:18.821Z,23.05
2022-08-17T23:19:46.260Z,23.26
2022-08-17T23:22:14.044Z,22.85
2022-08-17T23:24:48.850Z,23.87
2022-08-17T23:27:17.574Z,23.98
2022-08-17T23:29:45.222Z,24.31
2022-08-17T23:32:14.658Z,24.38
2022-08-17T23:34:43.793Z,23.86
2022-08-17T23:37:11.853Z,23.43
2022-08-17T23:39:39.793Z,23.43
2022-08-17T23:42:09.246Z,23.00
2022-08-17T23:44:38.008Z,23.17
2022-08-17T23:47:06.455Z,22.80
2022-08-17T23:49:36.150Z,23.66
2022-08-17T23:52:07.912Z,23.87
2022-08-17T23:54:41.565Z,23.72
2022-08-17T23:57:13.384Z,23.51
2022-08-17T23:59:43.823Z,23.90
